sensor_id;sensor_type;location;lat;lon;timestamp;temperature;humidity
72952;HTU21D;61102;51.956;5.878;2023-02-15T00:01:39;7.11;57.07
72952;HTU21D;61102;51.956;5.878;2023-02-15T00:04:06;7.10;57.08
72952;HTU21D;61102;51.956;5.878;2023-02-15T00:06:33;7.08;57.08
72952;HTU21D;61102;51.956;5.878;2023-02-15T00:09:00;7.07;57.05
72952;HTU21D;61102;51.956;5.878;2023-02-15T00:11:26;7.04;57.03
72952;HTU21D;61102;51.956;5.878;2023-02-15T00:14:17;7.02;57.16
72952;HTU21D;61102;51.956;5.878;2023-02-15T00:16:44;7.00;57.00
72952;HTU21D;61102;51.956;5.878;2023-02-15T00:19:12;6.96;57.09
72952;HTU21D;61102;51.956;5.878;2023-02-15T00:21:39;7.25;56.26
72952;HTU21D;61102;51.956;5.878;2023-02-15T00:24:07;7.04;56.55
72952;HTU21D;61102;51.956;5.878;2023-02-15T00:26:33;6.99;56.75
72952;HTU21D;61102;51.956;5.878;2023-02-15T00:29:01;6.94;56.92
72952;HTU21D;61102;51.956;5.878;2023-02-15T00:31:29;6.89;57.03
72952;HTU21D;61102;51.956;5.878;2023-02-15T00:34:05;6.90;57.16
72952;HTU21D;61102;51.956;5.878;2023-02-15T00:36:32;6.88;56.98
72952;HTU21D;61102;51.956;5.878;2023-02-15T00:38:59;6.85;57.10
72952;HTU21D;61102;51.956;5.878;2023-02-15T00:41:25;6.84;57.16
72952;HTU21D;61102;51.956;5.878;2023-02-15T00:43:51;6.81;57.24
72952;HTU21D;61102;51.956;5.878;2023-02-15T00:46:17;6.80;57.22
72952;HTU21D;61102;51.956;5.878;2023-02-15T00:48:44;6.78;57.26
72952;HTU21D;61102;51.956;5.878;2023-02-15T00:51:11;6.78;57.28
72952;HTU21D;61102;51.956;5.878;2023-02-15T00:53:37;6.78;57.33
72952;HTU21D;61102;51.956;5.878;2023-02-15T00:56:03;6.75;57.33
72952;HTU21D;61102;51.956;5.878;2023-02-15T00:58:29;6.72;57.35
72952;HTU21D;61102;51.956;5.878;2023-02-15T01:01:03;6.71;57.58
72952;HTU21D;61102;51.956;5.878;2023-02-15T01:03:30;6.69;57.36
72952;HTU21D;61102;51.956;5.878;2023-02-15T01:05:56;6.68;57.43
72952;HTU21D;61102;51.956;5.878;2023-02-15T01:08:22;6.68;57.44
72952;HTU21D;61102;51.956;5.878;2023-02-15T01:10:49;6.67;57.45
72952;HTU21D;61102;51.956;5.878;2023-02-15T01:13:16;6.65;57.48
72952;HTU21D;61102;51.956;5.878;2023-02-15T01:15:43;6.65;57.42
72952;HTU21D;61102;51.956;5.878;2023-02-15T01:18:10;6.60;57.48
72952;HTU21D;61102;51.956;5.878;2023-02-15T01:20:38;6.57;57.52
72952;HTU21D;61102;51.956;5.878;2023-02-15T01:23:07;6.56;57.47
72952;HTU21D;61102;51.956;5.878;2023-02-15T01:25:35;6.53;57.52
72952;HTU21D;61102;51.956;5.878;2023-02-15T01:28:02;6.52;57.52
72952;HTU21D;61102;51.956;5.878;2023-02-15T01:30:28;6.50;57.56
72952;HTU21D;61102;51.956;5.878;2023-02-15T01:32:54;6.48;57.61
72952;HTU21D;61102;51.956;5.878;2023-02-15T01:35:21;6.48;57.56
72952;HTU21D;61102;51.956;5.878;2023-02-15T01:37:47;6.46;57.57
72952;HTU21D;61102;51.956;5.878;2023-02-15T01:40:15;6.43;57.62
72952;HTU21D;61102;51.956;5.878;2023-02-15T01:42:44;6.45;57.51
72952;HTU21D;61102;51.956;5.878;2023-02-15T01:45:28;6.41;57.66
72952;HTU21D;61102;51.956;5.878;2023-02-15T01:48:10;6.40;57.74
72952;HTU21D;61102;51.956;5.878;2023-02-15T01:50:50;6.39;57.71
72952;HTU21D;61102;51.956;5.878;2023-02-15T01:53:25;6.39;57.61
72952;HTU21D;61102;51.956;5.878;2023-02-15T01:55:57;6.37;57.56
72952;HTU21D;61102;51.956;5.878;2023-02-15T01:58:27;6.37;57.57
72952;HTU21D;61102;51.956;5.878;2023-02-15T02:00:56;6.35;57.55
72952;HTU21D;61102;51.956;5.878;2023-02-15T02:05:58;6.35;57.52
72952;HTU21D;61102;51.956;5.878;2023-02-15T02:08:24;6.34;57.54
72952;HTU21D;61102;51.956;5.878;2023-02-15T02:10:50;6.30;57.58
72952;HTU21D;61102;51.956;5.878;2023-02-15T02:13:17;6.27;57.62
72952;HTU21D;61102;51.956;5.878;2023-02-15T02:18:24;6.20;57.83
72952;HTU21D;61102;51.956;5.878;2023-02-15T02:21:09;6.49;56.89
72952;HTU21D;61102;51.956;5.878;2023-02-15T02:36:04;6.06;57.80
72952;HTU21D;61102;51.956;5.878;2023-02-15T02:46:29;5.94;57.97
72952;HTU21D;61102;51.956;5.878;2023-02-15T02:48:57;5.91;57.77
72952;HTU21D;61102;51.956;5.878;2023-02-15T02:51:23;5.92;57.80
72952;HTU21D;61102;51.956;5.878;2023-02-15T02:53:53;5.90;57.84
72952;HTU21D;61102;51.956;5.878;2023-02-15T02:56:29;5.91;57.95
72952;HTU21D;61102;51.956;5.878;2023-02-15T02:59:00;5.90;57.86
72952;HTU21D;61102;51.956;5.878;2023-02-15T03:01:49;5.94;57.93
72952;HTU21D;61102;51.956;5.878;2023-02-15T03:04:25;5.92;57.86
72952;HTU21D;61102;51.956;5.878;2023-02-15T03:06:58;5.86;57.86
72952;HTU21D;61102;51.956;5.878;2023-02-15T03:09:35;5.82;57.95
72952;HTU21D;61102;51.956;5.878;2023-02-15T03:12:24;5.84;57.98
72952;HTU21D;61102;51.956;5.878;2023-02-15T03:15:05;5.81;58.07
72952;HTU21D;61102;51.956;5.878;2023-02-15T03:17:35;5.79;57.90
72952;HTU21D;61102;51.956;5.878;2023-02-15T03:20:08;5.78;57.92
72952;HTU21D;61102;51.956;5.878;2023-02-15T03:22:40;5.78;57.91
72952;HTU21D;61102;51.956;5.878;2023-02-15T03:25:23;5.79;57.98
72952;HTU21D;61102;51.956;5.878;2023-02-15T03:28:03;5.78;57.93
72952;HTU21D;61102;51.956;5.878;2023-02-15T03:30:32;5.75;57.81
72952;HTU21D;61102;51.956;5.878;2023-02-15T03:33:00;5.72;57.86
72952;HTU21D;61102;51.956;5.878;2023-02-15T03:35:35;5.72;58.09
72952;HTU21D;61102;51.956;5.878;2023-02-15T03:38:05;5.71;57.94
72952;HTU21D;61102;51.956;5.878;2023-02-15T03:40:41;5.72;58.11
72952;HTU21D;61102;51.956;5.878;2023-02-15T03:43:51;5.74;58.02
72952;HTU21D;61102;51.956;5.878;2023-02-15T03:46:40;5.70;58.06
72952;HTU21D;61102;51.956;5.878;2023-02-15T03:49:45;5.68;58.07
72952;HTU21D;61102;51.956;5.878;2023-02-15T03:52:15;5.64;57.80
72952;HTU21D;61102;51.956;5.878;2023-02-15T03:54:42;5.62;57.84
72952;HTU21D;61102;51.956;5.878;2023-02-15T04:00:00;5.59;57.91
72952;HTU21D;61102;51.956;5.878;2023-02-15T04:03:39;5.59;58.09
72952;HTU21D;61102;51.956;5.878;2023-02-15T04:05:39;5.60;57.78
72952;HTU21D;61102;51.956;5.878;2023-02-15T04:08:05;5.55;57.87
72952;HTU21D;61102;51.956;5.878;2023-02-15T04:10:31;5.55;57.92
72952;HTU21D;61102;51.956;5.878;2023-02-15T04:13:16;5.56;57.90
72952;HTU21D;61102;51.956;5.878;2023-02-15T04:15:42;5.52;58.06
72952;HTU21D;61102;51.956;5.878;2023-02-15T04:18:26;5.51;58.09
72952;HTU21D;61102;51.956;5.878;2023-02-15T04:21:11;5.50;58.22
72952;HTU21D;61102;51.956;5.878;2023-02-15T04:23:56;5.49;58.19
72952;HTU21D;61102;51.956;5.878;2023-02-15T04:26:40;5.50;58.22
72952;HTU21D;61102;51.956;5.878;2023-02-15T04:29:06;5.50;58.23
72952;HTU21D;61102;51.956;5.878;2023-02-15T04:31:33;5.49;58.29
72952;HTU21D;61102;51.956;5.878;2023-02-15T04:33:59;5.49;58.22
72952;HTU21D;61102;51.956;5.878;2023-02-15T04:36:25;5.51;58.19
72952;HTU21D;61102;51.956;5.878;2023-02-15T04:38:51;5.49;58.19
72952;HTU21D;61102;51.956;5.878;2023-02-15T04:41:18;5.46;58.22
72952;HTU21D;61102;51.956;5.878;2023-02-15T04:43:44;5.42;58.24
72952;HTU21D;61102;51.956;5.878;2023-02-15T04:46:10;5.40;58.25
72952;HTU21D;61102;51.956;5.878;2023-02-15T04:48:36;5.40;58.26
72952;HTU21D;61102;51.956;5.878;2023-02-15T04:51:06;5.39;58.42
72952;HTU21D;61102;51.956;5.878;2023-02-15T04:53:34;5.40;58.19
72952;HTU21D;61102;51.956;5.878;2023-02-15T04:56:01;5.39;58.13
72952;HTU21D;61102;51.956;5.878;2023-02-15T04:58:27;5.36;58.13
72952;HTU21D;61102;51.956;5.878;2023-02-15T05:00:57;5.32;58.32
72952;HTU21D;61102;51.956;5.878;2023-02-15T05:03:24;5.28;58.21
72952;HTU21D;61102;51.956;5.878;2023-02-15T05:05:51;5.24;58.25
72952;HTU21D;61102;51.956;5.878;2023-02-15T05:08:17;5.24;58.25
72952;HTU21D;61102;51.956;5.878;2023-02-15T05:10:43;5.24;58.22
72952;HTU21D;61102;51.956;5.878;2023-02-15T05:13:09;5.21;58.25
72952;HTU21D;61102;51.956;5.878;2023-02-15T05:15:36;5.21;58.32
72952;HTU21D;61102;51.956;5.878;2023-02-15T05:18:02;5.19;58.39
72952;HTU21D;61102;51.956;5.878;2023-02-15T05:20:29;5.18;58.58
72952;HTU21D;61102;51.956;5.878;2023-02-15T05:22:55;5.20;58.54
72952;HTU21D;61102;51.956;5.878;2023-02-15T05:25:22;5.21;58.51
72952;HTU21D;61102;51.956;5.878;2023-02-15T05:28:09;5.20;58.64
72952;HTU21D;61102;51.956;5.878;2023-02-15T05:30:47;5.24;58.58
72952;HTU21D;61102;51.956;5.878;2023-02-15T05:33:13;5.24;58.70
72952;HTU21D;61102;51.956;5.878;2023-02-15T05:35:40;5.28;58.69
72952;HTU21D;61102;51.956;5.878;2023-02-15T05:38:06;5.30;58.67
72952;HTU21D;61102;51.956;5.878;2023-02-15T05:40:32;5.31;58.61
72952;HTU21D;61102;51.956;5.878;2023-02-15T05:42:58;5.31;58.63
72952;HTU21D;61102;51.956;5.878;2023-02-15T05:45:24;5.31;58.54
72952;HTU21D;61102;51.956;5.878;2023-02-15T05:47:51;5.28;58.54
72952;HTU21D;61102;51.956;5.878;2023-02-15T05:50:17;5.25;58.53
72952;HTU21D;61102;51.956;5.878;2023-02-15T05:52:43;5.23;58.55
72952;HTU21D;61102;51.956;5.878;2023-02-15T05:55:10;5.21;58.58
72952;HTU21D;61102;51.956;5.878;2023-02-15T05:57:36;5.22;58.65
72952;HTU21D;61102;51.956;5.878;2023-02-15T06:00:04;5.20;58.74
72952;HTU21D;61102;51.956;5.878;2023-02-15T06:02:37;5.22;58.61
72952;HTU21D;61102;51.956;5.878;2023-02-15T06:05:05;5.22;58.66
72952;HTU21D;61102;51.956;5.878;2023-02-15T06:07:31;5.24;58.62
72952;HTU21D;61102;51.956;5.878;2023-02-15T06:09:58;5.22;58.65
72952;HTU21D;61102;51.956;5.878;2023-02-15T06:12:24;5.21;58.73
72952;HTU21D;61102;51.956;5.878;2023-02-15T06:14:50;5.22;58.76
72952;HTU21D;61102;51.956;5.878;2023-02-15T06:17:17;5.24;58.88
72952;HTU21D;61102;51.956;5.878;2023-02-15T06:19:43;5.26;58.80
72952;HTU21D;61102;51.956;5.878;2023-02-15T06:22:09;5.25;58.71
72952;HTU21D;61102;51.956;5.878;2023-02-15T06:24:36;5.27;58.64
72952;HTU21D;61102;51.956;5.878;2023-02-15T06:27:02;5.25;58.64
72952;HTU21D;61102;51.956;5.878;2023-02-15T06:29:28;5.25;58.67
72952;HTU21D;61102;51.956;5.878;2023-02-15T06:31:54;5.24;58.75
72952;HTU21D;61102;51.956;5.878;2023-02-15T06:34:21;5.23;58.77
72952;HTU21D;61102;51.956;5.878;2023-02-15T06:36:47;5.24;58.78
72952;HTU21D;61102;51.956;5.878;2023-02-15T06:39:13;5.24;58.96
72952;HTU21D;61102;51.956;5.878;2023-02-15T06:41:39;5.25;58.93
72952;HTU21D;61102;51.956;5.878;2023-02-15T06:44:06;5.27;58.95
72952;HTU21D;61102;51.956;5.878;2023-02-15T06:46:32;5.28;59.01
72952;HTU21D;61102;51.956;5.878;2023-02-15T06:48:58;5.31;59.12
72952;HTU21D;61102;51.956;5.878;2023-02-15T06:51:24;5.32;59.08
72952;HTU21D;61102;51.956;5.878;2023-02-15T06:53:50;5.34;59.01
72952;HTU21D;61102;51.956;5.878;2023-02-15T06:56:16;5.35;59.02
72952;HTU21D;61102;51.956;5.878;2023-02-15T06:58:43;5.36;59.03
72952;HTU21D;61102;51.956;5.878;2023-02-15T07:01:11;5.38;59.04
72952;HTU21D;61102;51.956;5.878;2023-02-15T07:03:37;5.40;59.09
72952;HTU21D;61102;51.956;5.878;2023-02-15T07:09:13;5.46;59.06
72952;HTU21D;61102;51.956;5.878;2023-02-15T07:11:40;5.47;59.12
72952;HTU21D;61102;51.956;5.878;2023-02-15T07:14:25;5.49;59.12
72952;HTU21D;61102;51.956;5.878;2023-02-15T07:16:51;5.50;59.09
72952;HTU21D;61102;51.956;5.878;2023-02-15T07:19:17;5.53;59.17
72952;HTU21D;61102;51.956;5.878;2023-02-15T07:21:44;5.56;59.17
72952;HTU21D;61102;51.956;5.878;2023-02-15T07:24:11;5.60;59.24
72952;HTU21D;61102;51.956;5.878;2023-02-15T07:26:37;5.63;59.30
72952;HTU21D;61102;51.956;5.878;2023-02-15T07:29:04;5.69;59.28
72952;HTU21D;61102;51.956;5.878;2023-02-15T07:31:30;5.71;59.28
72952;HTU21D;61102;51.956;5.878;2023-02-15T07:33:56;5.76;59.28
72952;HTU21D;61102;51.956;5.878;2023-02-15T07:36:23;5.80;59.26
72952;HTU21D;61102;51.956;5.878;2023-02-15T07:38:49;5.85;59.30
72952;HTU21D;61102;51.956;5.878;2023-02-15T07:41:15;5.91;59.29
72952;HTU21D;61102;51.956;5.878;2023-02-15T07:43:44;5.93;59.36
72952;HTU21D;61102;51.956;5.878;2023-02-15T07:46:13;5.96;59.35
72952;HTU21D;61102;51.956;5.878;2023-02-15T07:48:41;6.02;59.35
72952;HTU21D;61102;51.956;5.878;2023-02-15T07:51:09;6.07;59.41
72952;HTU21D;61102;51.956;5.878;2023-02-15T07:53:37;6.11;59.35
72952;HTU21D;61102;51.956;5.878;2023-02-15T07:56:06;6.15;59.51
72952;HTU21D;61102;51.956;5.878;2023-02-15T07:58:33;6.20;59.46
72952;HTU21D;61102;51.956;5.878;2023-02-15T08:01:26;6.26;59.63
72952;HTU21D;61102;51.956;5.878;2023-02-15T08:03:53;6.30;59.50
72952;HTU21D;61102;51.956;5.878;2023-02-15T08:06:21;6.38;59.54
72952;HTU21D;61102;51.956;5.878;2023-02-15T08:08:47;6.84;58.44
72952;HTU21D;61102;51.956;5.878;2023-02-15T08:11:23;6.60;59.28
72952;HTU21D;61102;51.956;5.878;2023-02-15T08:13:54;6.57;59.32
72952;HTU21D;61102;51.956;5.878;2023-02-15T08:16:38;6.58;59.49
72952;HTU21D;61102;51.956;5.878;2023-02-15T08:19:10;6.65;59.55
72952;HTU21D;61102;51.956;5.878;2023-02-15T08:21:38;6.70;59.59
72952;HTU21D;61102;51.956;5.878;2023-02-15T08:24:06;6.76;59.58
72952;HTU21D;61102;51.956;5.878;2023-02-15T08:26:33;7.24;58.39
72952;HTU21D;61102;51.956;5.878;2023-02-15T08:29:00;6.97;58.99
72952;HTU21D;61102;51.956;5.878;2023-02-15T08:31:26;6.96;59.28
72952;HTU21D;61102;51.956;5.878;2023-02-15T08:33:54;6.99;59.42
72952;HTU21D;61102;51.956;5.878;2023-02-15T08:36:22;7.48;58.25
72952;HTU21D;61102;51.956;5.878;2023-02-15T08:38:49;7.23;58.87
72952;HTU21D;61102;51.956;5.878;2023-02-15T08:41:16;7.22;59.16
72952;HTU21D;61102;51.956;5.878;2023-02-15T08:43:42;7.27;59.28
72952;HTU21D;61102;51.956;5.878;2023-02-15T08:46:12;7.34;59.49
72952;HTU21D;61102;51.956;5.878;2023-02-15T08:48:39;7.44;59.30
72952;HTU21D;61102;51.956;5.878;2023-02-15T08:51:12;7.56;59.43
72952;HTU21D;61102;51.956;5.878;2023-02-15T08:53:40;7.68;59.17
72952;HTU21D;61102;51.956;5.878;2023-02-15T08:56:07;7.78;59.07
72952;HTU21D;61102;51.956;5.878;2023-02-15T08:58:34;7.89;59.09
72952;HTU21D;61102;51.956;5.878;2023-02-15T09:01:07;8.01;59.03
72952;HTU21D;61102;51.956;5.878;2023-02-15T09:03:39;8.14;59.15
72952;HTU21D;61102;51.956;5.878;2023-02-15T09:06:43;8.34;58.77
72952;HTU21D;61102;51.956;5.878;2023-02-15T09:09:17;8.48;58.85
72952;HTU21D;61102;51.956;5.878;2023-02-15T09:12:14;8.73;58.67
72952;HTU21D;61102;51.956;5.878;2023-02-15T09:18:22;8.94;58.28
72952;HTU21D;61102;51.956;5.878;2023-02-15T09:21:54;9.20;58.13
72952;HTU21D;61102;51.956;5.878;2023-02-15T09:28:06;9.37;57.74
72952;HTU21D;61102;51.956;5.878;2023-02-15T09:30:53;9.46;57.99
72952;HTU21D;61102;51.956;5.878;2023-02-15T09:33:33;9.51;57.77
72952;HTU21D;61102;51.956;5.878;2023-02-15T09:36:13;9.62;57.71
72952;HTU21D;61102;51.956;5.878;2023-02-15T09:38:40;9.78;57.52
72952;HTU21D;61102;51.956;5.878;2023-02-15T09:44:17;10.06;57.63
72952;HTU21D;61102;51.956;5.878;2023-02-15T10:06:28;11.22;56.78
72952;HTU21D;61102;51.956;5.878;2023-02-15T10:09:03;11.31;56.63
72952;HTU21D;61102;51.956;5.878;2023-02-15T10:14:21;11.49;56.28
72952;HTU21D;61102;51.956;5.878;2023-02-15T10:28:11;12.19;55.51
72952;HTU21D;61102;51.956;5.878;2023-02-15T10:30:47;12.30;54.97
72952;HTU21D;61102;51.956;5.878;2023-02-15T10:33:41;12.42;54.94
72952;HTU21D;61102;51.956;5.878;2023-02-15T10:42:27;12.81;53.97
72952;HTU21D;61102;51.956;5.878;2023-02-15T10:45:16;12.92;53.91
72952;HTU21D;61102;51.956;5.878;2023-02-15T10:58:29;13.29;52.74
72952;HTU21D;61102;51.956;5.878;2023-02-15T11:01:08;13.36;52.63
72952;HTU21D;61102;51.956;5.878;2023-02-15T11:04:07;13.58;51.98
72952;HTU21D;61102;51.956;5.878;2023-02-15T11:06:39;13.54;51.73
72952;HTU21D;61102;51.956;5.878;2023-02-15T11:09:13;13.61;50.18
72952;HTU21D;61102;51.956;5.878;2023-02-15T11:11:42;13.62;49.47
72952;HTU21D;61102;51.956;5.878;2023-02-15T11:14:20;13.66;49.83
72952;HTU21D;61102;51.956;5.878;2023-02-15T11:16:51;13.75;49.34
72952;HTU21D;61102;51.956;5.878;2023-02-15T11:19:26;13.83;48.87
72952;HTU21D;61102;51.956;5.878;2023-02-15T11:21:58;13.95;49.47
72952;HTU21D;61102;51.956;5.878;2023-02-15T11:24:27;14.06;48.90
72952;HTU21D;61102;51.956;5.878;2023-02-15T11:27:01;14.21;49.04
72952;HTU21D;61102;51.956;5.878;2023-02-15T11:29:41;14.34;48.51
72952;HTU21D;61102;51.956;5.878;2023-02-15T11:32:23;14.36;47.43
72952;HTU21D;61102;51.956;5.878;2023-02-15T11:37:51;14.39;47.29
72952;HTU21D;61102;51.956;5.878;2023-02-15T11:40:36;14.54;47.66
72952;HTU21D;61102;51.956;5.878;2023-02-15T11:43:15;14.62;47.22
72952;HTU21D;61102;51.956;5.878;2023-02-15T11:45:44;14.63;46.92
72952;HTU21D;61102;51.956;5.878;2023-02-15T11:48:13;14.71;47.10
72952;HTU21D;61102;51.956;5.878;2023-02-15T11:50:41;14.82;46.86
72952;HTU21D;61102;51.956;5.878;2023-02-15T11:53:18;14.97;46.43
72952;HTU21D;61102;51.956;5.878;2023-02-15T11:55:48;14.98;45.83
72952;HTU21D;61102;51.956;5.878;2023-02-15T11:58:33;15.06;46.40
72952;HTU21D;61102;51.956;5.878;2023-02-15T12:01:45;15.19;46.35
72952;HTU21D;61102;51.956;5.878;2023-02-15T12:04:36;15.27;46.59
72952;HTU21D;61102;51.956;5.878;2023-02-15T12:07:19;15.32;46.84
72952;HTU21D;61102;51.956;5.878;2023-02-15T12:12:37;15.40;45.73
72952;HTU21D;61102;51.956;5.878;2023-02-15T12:15:09;15.39;46.06
72952;HTU21D;61102;51.956;5.878;2023-02-15T12:17:39;15.45;45.35
72952;HTU21D;61102;51.956;5.878;2023-02-15T12:20:29;15.57;44.95
72952;HTU21D;61102;51.956;5.878;2023-02-15T12:23:03;15.56;44.65
72952;HTU21D;61102;51.956;5.878;2023-02-15T12:25:42;15.58;44.98
72952;HTU21D;61102;51.956;5.878;2023-02-15T12:30:50;15.72;44.48
72952;HTU21D;61102;51.956;5.878;2023-02-15T12:33:28;15.82;44.96
72952;HTU21D;61102;51.956;5.878;2023-02-15T12:36:08;15.88;44.40
72952;HTU21D;61102;51.956;5.878;2023-02-15T12:38:36;15.92;44.27
72952;HTU21D;61102;51.956;5.878;2023-02-15T12:41:10;16.00;44.55
72952;HTU21D;61102;51.956;5.878;2023-02-15T12:43:47;16.12;44.14
72952;HTU21D;61102;51.956;5.878;2023-02-15T12:46:21;16.24;44.47
72952;HTU21D;61102;51.956;5.878;2023-02-15T12:49:16;16.39;44.29
72952;HTU21D;61102;51.956;5.878;2023-02-15T12:51:53;16.45;44.15
72952;HTU21D;61102;51.956;5.878;2023-02-15T12:56:59;16.50;43.51
72952;HTU21D;61102;51.956;5.878;2023-02-15T12:59:26;16.49;43.07
72952;HTU21D;61102;51.956;5.878;2023-02-15T13:01:52;16.49;43.24
72952;HTU21D;61102;51.956;5.878;2023-02-15T13:04:28;16.54;43.03
72952;HTU21D;61102;51.956;5.878;2023-02-15T13:06:59;16.55;43.06
72952;HTU21D;61102;51.956;5.878;2023-02-15T13:12:18;16.85;43.02
72952;HTU21D;61102;51.956;5.878;2023-02-15T13:14:46;16.77;42.71
72952;HTU21D;61102;51.956;5.878;2023-02-15T13:17:15;16.73;42.78
72952;HTU21D;61102;51.956;5.878;2023-02-15T13:19:49;16.75;43.04
72952;HTU21D;61102;51.956;5.878;2023-02-15T13:22:21;16.85;42.97
72952;HTU21D;61102;51.956;5.878;2023-02-15T13:24:58;16.99;42.45
72952;HTU21D;61102;51.956;5.878;2023-02-15T13:27:35;17.09;42.17
72952;HTU21D;61102;51.956;5.878;2023-02-15T13:30:27;17.11;42.18
72952;HTU21D;61102;51.956;5.878;2023-02-15T13:32:55;17.15;42.17
72952;HTU21D;61102;51.956;5.878;2023-02-15T13:35:26;17.18;42.10
72952;HTU21D;61102;51.956;5.878;2023-02-15T13:40:37;17.52;41.24
72952;HTU21D;61102;51.956;5.878;2023-02-15T13:43:30;17.67;41.19
72952;HTU21D;61102;51.956;5.878;2023-02-15T13:51:57;18.10;41.19
72952;HTU21D;61102;51.956;5.878;2023-02-15T13:54:36;18.38;40.94
72952;HTU21D;61102;51.956;5.878;2023-02-15T14:00:16;18.43;40.94
72952;HTU21D;61102;51.956;5.878;2023-02-15T14:05:37;18.21;40.70
72952;HTU21D;61102;51.956;5.878;2023-02-15T14:08:13;18.14;40.92
72952;HTU21D;61102;51.956;5.878;2023-02-15T14:10:51;18.03;40.68
72952;HTU21D;61102;51.956;5.878;2023-02-15T14:22:25;17.56;41.68
72952;HTU21D;61102;51.956;5.878;2023-02-15T14:28:04;17.30;42.16
72952;HTU21D;61102;51.956;5.878;2023-02-15T14:30:38;17.10;42.00
72952;HTU21D;61102;51.956;5.878;2023-02-15T14:33:17;17.04;42.25
72952;HTU21D;61102;51.956;5.878;2023-02-15T14:35:48;17.07;42.16
72952;HTU21D;61102;51.956;5.878;2023-02-15T14:41:23;17.11;42.29
72952;HTU21D;61102;51.956;5.878;2023-02-15T14:46:59;17.14;42.52
72952;HTU21D;61102;51.956;5.878;2023-02-15T14:49:32;17.10;42.60
72952;HTU21D;61102;51.956;5.878;2023-02-15T14:52:09;17.15;42.78
72952;HTU21D;61102;51.956;5.878;2023-02-15T15:02:26;16.82;43.17
72952;HTU21D;61102;51.956;5.878;2023-02-15T15:05:00;16.78;43.35
72952;HTU21D;61102;51.956;5.878;2023-02-15T15:07:35;16.70;43.40
72952;HTU21D;61102;51.956;5.878;2023-02-15T15:15:44;16.59;43.80
72952;HTU21D;61102;51.956;5.878;2023-02-15T15:18:44;16.58;43.70
72952;HTU21D;61102;51.956;5.878;2023-02-15T15:21:11;16.46;43.67
72952;HTU21D;61102;51.956;5.878;2023-02-15T15:23:43;16.36;44.06
72952;HTU21D;61102;51.956;5.878;2023-02-15T15:26:25;16.33;44.20
72952;HTU21D;61102;51.956;5.878;2023-02-15T15:28:58;16.26;44.24
72952;HTU21D;61102;51.956;5.878;2023-02-15T15:50:19;15.77;44.86
72952;HTU21D;61102;51.956;5.878;2023-02-15T15:52:51;15.74;45.01
72952;HTU21D;61102;51.956;5.878;2023-02-15T15:55:22;15.71;44.99
72952;HTU21D;61102;51.956;5.878;2023-02-15T15:57:53;15.68;45.12
72952;HTU21D;61102;51.956;5.878;2023-02-15T16:01:08;15.65;45.00
72952;HTU21D;61102;51.956;5.878;2023-02-15T16:03:25;15.62;45.16
72952;HTU21D;61102;51.956;5.878;2023-02-15T16:05:52;15.53;45.15
72952;HTU21D;61102;51.956;5.878;2023-02-15T16:08:31;15.45;45.43
72952;HTU21D;61102;51.956;5.878;2023-02-15T16:10:59;15.38;45.42
72952;HTU21D;61102;51.956;5.878;2023-02-15T16:13:26;15.33;45.48
72952;HTU21D;61102;51.956;5.878;2023-02-15T16:15:54;15.26;45.67
72952;HTU21D;61102;51.956;5.878;2023-02-15T16:18:24;15.19;45.80
72952;HTU21D;61102;51.956;5.878;2023-02-15T16:20:57;15.13;45.86
72952;HTU21D;61102;51.956;5.878;2023-02-15T16:24:05;15.14;45.95
72952;HTU21D;61102;51.956;5.878;2023-02-15T16:29:17;14.93;46.20
72952;HTU21D;61102;51.956;5.878;2023-02-15T16:32:19;14.87;46.34
72952;HTU21D;61102;51.956;5.878;2023-02-15T16:35:01;14.82;46.34
72952;HTU21D;61102;51.956;5.878;2023-02-15T16:37:33;14.70;46.47
72952;HTU21D;61102;51.956;5.878;2023-02-15T16:39:59;14.63;46.44
72952;HTU21D;61102;51.956;5.878;2023-02-15T16:42:26;14.53;46.61
72952;HTU21D;61102;51.956;5.878;2023-02-15T16:47:30;14.39;46.92
72952;HTU21D;61102;51.956;5.878;2023-02-15T16:50:00;14.30;47.09
72952;HTU21D;61102;51.956;5.878;2023-02-15T16:52:28;14.27;47.05
72952;HTU21D;61102;51.956;5.878;2023-02-15T16:54:59;14.22;47.18
72952;HTU21D;61102;51.956;5.878;2023-02-15T16:57:36;14.21;47.34
72952;HTU21D;61102;51.956;5.878;2023-02-15T17:00:18;14.19;47.34
72952;HTU21D;61102;51.956;5.878;2023-02-15T17:05:32;14.06;47.28
72952;HTU21D;61102;51.956;5.878;2023-02-15T17:10:37;13.92;47.55
72952;HTU21D;61102;51.956;5.878;2023-02-15T17:13:15;13.89;47.69
72952;HTU21D;61102;51.956;5.878;2023-02-15T17:18:37;13.77;47.81
72952;HTU21D;61102;51.956;5.878;2023-02-15T17:21:19;13.71;47.92
72952;HTU21D;61102;51.956;5.878;2023-02-15T17:23:47;13.65;47.93
72952;HTU21D;61102;51.956;5.878;2023-02-15T17:26:17;13.58;48.03
72952;HTU21D;61102;51.956;5.878;2023-02-15T17:28:53;13.56;48.18
72952;HTU21D;61102;51.956;5.878;2023-02-15T17:31:25;13.51;48.18
72952;HTU21D;61102;51.956;5.878;2023-02-15T17:33:54;13.48;48.21
72952;HTU21D;61102;51.956;5.878;2023-02-15T17:36:24;13.41;48.42
72952;HTU21D;61102;51.956;5.878;2023-02-15T17:44:45;13.31;48.35
72952;HTU21D;61102;51.956;5.878;2023-02-15T17:47:21;13.23;48.70
72952;HTU21D;61102;51.956;5.878;2023-02-15T17:49:48;13.15;48.61
72952;HTU21D;61102;51.956;5.878;2023-02-15T17:52:16;13.06;48.72
72952;HTU21D;61102;51.956;5.878;2023-02-15T17:54:43;13.05;48.74
72952;HTU21D;61102;51.956;5.878;2023-02-15T17:57:29;13.01;48.76
72952;HTU21D;61102;51.956;5.878;2023-02-15T17:59:56;12.99;48.82
72952;HTU21D;61102;51.956;5.878;2023-02-15T18:02:41;12.95;48.84
72952;HTU21D;61102;51.956;5.878;2023-02-15T18:05:26;12.91;48.80
72952;HTU21D;61102;51.956;5.878;2023-02-15T18:08:13;12.84;48.93
72952;HTU21D;61102;51.956;5.878;2023-02-15T18:10:58;12.80;48.86
72952;HTU21D;61102;51.956;5.878;2023-02-15T18:13:43;12.74;48.91
72952;HTU21D;61102;51.956;5.878;2023-02-15T18:16:14;12.66;49.18
72952;HTU21D;61102;51.956;5.878;2023-02-15T18:18:42;12.57;49.16
72952;HTU21D;61102;51.956;5.878;2023-02-15T18:21:08;12.51;49.21
72952;HTU21D;61102;51.956;5.878;2023-02-15T18:23:35;12.48;49.21
72952;HTU21D;61102;51.956;5.878;2023-02-15T18:26:02;12.38;49.35
72952;HTU21D;61102;51.956;5.878;2023-02-15T18:28:28;12.31;49.44
72952;HTU21D;61102;51.956;5.878;2023-02-15T18:30:54;12.26;49.54
72952;HTU21D;61102;51.956;5.878;2023-02-15T18:33:34;12.25;49.72
72952;HTU21D;61102;51.956;5.878;2023-02-15T18:36:02;12.16;49.60
72952;HTU21D;61102;51.956;5.878;2023-02-15T18:38:29;12.10;49.68
72952;HTU21D;61102;51.956;5.878;2023-02-15T18:40:56;12.07;49.83
72952;HTU21D;61102;51.956;5.878;2023-02-15T18:43:23;12.04;49.87
72952;HTU21D;61102;51.956;5.878;2023-02-15T18:45:49;12.03;49.86
72952;HTU21D;61102;51.956;5.878;2023-02-15T18:48:16;11.99;49.90
72952;HTU21D;61102;51.956;5.878;2023-02-15T18:50:42;11.91;49.95
72952;HTU21D;61102;51.956;5.878;2023-02-15T18:53:16;11.85;50.24
72952;HTU21D;61102;51.956;5.878;2023-02-15T18:55:43;11.79;50.14
72952;HTU21D;61102;51.956;5.878;2023-02-15T18:58:20;11.76;50.31
72952;HTU21D;61102;51.956;5.878;2023-02-15T19:00:48;11.70;50.20
72952;HTU21D;61102;51.956;5.878;2023-02-15T19:03:15;11.62;50.50
72952;HTU21D;61102;51.956;5.878;2023-02-15T19:05:44;11.59;50.50
72952;HTU21D;61102;51.956;5.878;2023-02-15T19:08:17;11.57;50.66